Time;durP1;ratioP1;P1;durP2;ratioP2;P2;SDS_P1;SDS_P2;PMS_P1;PMS_P2;Temp;Humidity;BMP_temperature;BMP_pressure;BME280_temperature;BME280_humidity;BME280_pressure;Samples;Min_cycle;Max_cycle;Signal;HPM_P1;HPM_P2
2021/07/22 00:01:21;;;;;;;12.32;5.85;;;;;;;24.78;44.18;101983.63;5000479;28;20419;-60
2021/07/22 00:03:47;;;;;;;9.55;6.18;;;;;;;24.79;44.27;101985.34;5001006;28;20390;-60
2021/07/22 00:06:12;;;;;;;15.65;7.00;;;;;;;24.77;44.48;101976.44;5000448;28;20026;-60
2021/07/22 00:08:37;;;;;;;10.40;6.00;;;;;;;24.76;44.03;101979.38;4999231;28;20053;-60
2021/07/22 00:11:06;;;;;;;13.57;7.57;;;;;;;24.76;45.18;101984.88;5001152;28;20080;-60
2021/07/22 00:13:31;;;;;;;13.90;6.32;;;;;;;24.74;45.00;101976.81;5000401;28;20141;-60
2021/07/22 00:15:57;;;;;;;12.77;7.45;;;;;;;24.74;44.25;101986.91;5000635;28;20109;-60
2021/07/22 00:18:22;;;;;;;12.38;6.78;;;;;;;24.70;44.67;101970.03;5000552;28;20029;-60
2021/07/22 00:20:48;;;;;;;11.43;6.68;;;;;;;24.72;44.46;101978.91;5000618;28;20100;-60
2021/07/22 00:23:14;;;;;;;17.33;7.25;;;;;;;24.68;44.82;101971.28;5000266;28;20108;-60
2021/07/22 00:25:41;;;;;;;11.23;6.95;;;;;;;24.72;44.51;101978.06;5000644;28;20057;-60
2021/07/22 00:28:06;;;;;;;12.48;6.53;;;;;;;24.69;44.74;101979.28;5000673;28;20479;-60
2021/07/22 00:30:32;;;;;;;11.80;6.93;;;;;;;24.69;44.86;101976.56;5001053;28;20054;-60
2021/07/22 00:32:57;;;;;;;16.10;6.85;;;;;;;24.69;44.91;101979.28;5000496;28;20109;-60
2021/07/22 00:35:23;;;;;;;16.42;7.70;;;;;;;24.69;44.62;101979.28;5000402;28;20024;-60
2021/07/22 00:37:49;;;;;;;12.20;7.30;;;;;;;24.68;45.06;101974.84;5000753;28;20054;-60
2021/07/22 00:40:14;;;;;;;18.50;7.45;;;;;;;24.67;44.97;101964.09;5000691;28;20090;-59
2021/07/22 00:43:00;;;;;;;11.43;6.53;;;;;;;24.64;45.60;101969.94;5000185;28;20093;-60
2021/07/22 00:45:27;;;;;;;13.65;7.13;;;;;;;24.63;45.69;101974.56;5000643;28;20042;-60
2021/07/22 00:47:52;;;;;;;16.38;7.93;;;;;;;24.61;44.92;101975.81;5000098;28;20026;-60
2021/07/22 00:50:18;;;;;;;13.90;7.40;;;;;;;24.61;44.90;101973.06;5000088;28;20034;-60
2021/07/22 00:52:43;;;;;;;14.07;8.18;;;;;;;24.58;45.46;101970.72;5031765;28;20108;-60
2021/07/22 00:55:09;;;;;;;12.57;7.32;;;;;;;24.59;44.85;101978.75;4996681;28;20109;-60
2021/07/22 00:57:34;;;;;;;15.52;8.07;;;;;;;24.58;45.74;101971.56;4995661;28;20117;-60
2021/07/22 00:59:59;;;;;;;13.73;6.65;;;;;;;24.53;44.92;101963.09;4997383;28;20420;-60
2021/07/22 01:02:25;;;;;;;14.25;7.55;;;;;;;24.54;45.64;101967.50;4997115;28;20427;-60
2021/07/22 01:04:50;;;;;;;11.93;6.63;;;;;;;24.47;45.25;101961.13;4997261;28;20459;-60
2021/07/22 01:07:15;;;;;;;14.40;7.50;;;;;;;24.48;44.73;101971.03;4997033;28;20026;-60
2021/07/22 01:09:41;;;;;;;11.48;6.93;;;;;;;24.44;45.96;101969.72;4995515;28;20434;-59
2021/07/22 01:12:06;;;;;;;14.98;6.80;;;;;;;24.42;45.25;101970.94;4996730;28;20030;-60
2021/07/22 01:14:32;;;;;;;19.67;6.88;;;;;;;24.39;45.86;101963.97;4996561;28;20073;-60
2021/07/22 01:16:57;;;;;;;16.23;6.90;;;;;;;24.36;45.47;101972.56;4996805;28;20368;-60
2021/07/22 01:19:22;;;;;;;19.50;7.95;;;;;;;24.32;45.61;101968.50;4996931;28;20464;-60
2021/07/22 01:21:48;;;;;;;12.93;7.15;;;;;;;24.23;45.10;101955.97;4996516;28;20053;-60
2021/07/22 01:24:13;;;;;;;18.95;8.15;;;;;;;24.25;45.64;101971.16;4996652;28;20135;-60
2021/07/22 01:26:38;;;;;;;11.68;7.50;;;;;;;24.23;46.10;101967.75;4996801;28;20030;-60
2021/07/22 01:29:06;;;;;;;13.90;7.75;;;;;;;24.21;45.71;101968.97;4996710;28;20110;-60
2021/07/22 01:31:32;;;;;;;18.58;7.95;;;;;;;24.20;46.13;101972.78;4996606;28;20018;-59
2021/07/22 01:33:57;;;;;;;15.50;7.82;;;;;;;24.15;45.74;101965.13;4996264;28;20052;-60
2021/07/22 01:36:23;;;;;;;13.20;8.20;;;;;;;24.15;45.34;101972.47;4996461;28;20030;-60
2021/07/22 01:38:51;;;;;;;11.10;7.10;;;;;;;24.12;45.92;101964.66;4996504;28;20109;-60
2021/07/22 01:41:16;;;;;;;13.40;7.90;;;;;;;24.11;46.22;101962.97;4995122;28;20039;-60
2021/07/22 01:43:41;;;;;;;14.20;7.78;;;;;;;24.07;46.24;101958.84;4996691;28;20029;-60
2021/07/22 01:46:07;;;;;;;13.18;6.88;;;;;;;24.05;45.46;101952.72;4996648;28;20069;-60
2021/07/22 01:48:32;;;;;;;14.40;7.20;;;;;;;24.02;45.36;101964.06;4996360;28;20037;-60
2021/07/22 01:50:57;;;;;;;9.75;6.45;;;;;;;23.99;45.73;101958.97;4996404;28;20026;-60
2021/07/22 01:53:23;;;;;;;12.90;7.35;;;;;;;23.95;46.40;101961.25;4996219;28;20057;-60
2021/07/22 01:55:48;;;;;;;14.07;8.25;;;;;;;23.93;46.34;101965.19;4995892;28;20104;-60
2021/07/22 01:58:13;;;;;;;13.80;7.93;;;;;;;23.87;45.88;101953.09;4995910;28;20379;-60
2021/07/22 02:00:39;;;;;;;15.43;7.53;;;;;;;23.86;45.65;101953.31;4995809;28;20517;-60
2021/07/22 02:03:05;;;;;;;12.43;7.32;;;;;;;23.83;46.13;101959.16;4996097;28;20088;-60
2021/07/22 02:05:30;;;;;;;10.50;6.20;;;;;;;23.84;45.50;101966.34;4995865;28;20027;-60
2021/07/22 02:07:55;;;;;;;15.40;7.88;;;;;;;23.83;46.15;101967.38;4995735;28;20113;-60
2021/07/22 02:10:21;;;;;;;15.23;7.35;;;;;;;23.81;46.65;101961.25;4995972;28;20030;-60
2021/07/22 02:12:46;;;;;;;17.85;9.05;;;;;;;23.80;45.63;101970.47;4995628;28;20157;-60
2021/07/22 02:15:11;;;;;;;13.73;7.35;;;;;;;23.75;46.60;101963.69;4995599;28;20080;-60
2021/07/22 02:17:37;;;;;;;15.30;7.75;;;;;;;23.74;46.45;101961.97;4995796;28;20030;-60
2021/07/22 02:20:03;;;;;;;15.23;7.97;;;;;;;23.70;46.38;101952.44;4995730;28;20050;-60
2021/07/22 02:22:28;;;;;;;15.75;7.93;;;;;;;23.71;46.27;101962.34;4995684;28;20104;-60
2021/07/22 02:24:54;;;;;;;13.40;7.43;;;;;;;23.67;46.84;101961.00;4995736;28;20149;-60
2021/07/22 02:27:19;;;;;;;15.18;8.35;;;;;;;23.65;46.67;101971.31;4994903;28;20018;-60
2021/07/22 02:29:44;;;;;;;11.25;7.68;;;;;;;23.63;46.16;101962.44;4995312;28;20077;-60
2021/07/22 02:32:10;;;;;;;12.93;7.78;;;;;;;23.61;45.97;101966.41;4995534;28;20062;-60
2021/07/22 02:34:35;;;;;;;20.33;7.88;;;;;;;23.59;45.64;101969.31;4995518;28;20081;-60
2021/07/22 02:37:00;;;;;;;16.63;7.90;;;;;;;23.57;46.46;101971.41;4995048;28;20463;-60
2021/07/22 02:39:26;;;;;;;14.68;8.25;;;;;;;23.55;46.58;101970.72;4995886;28;20086;-59
2021/07/22 02:41:51;;;;;;;15.07;8.75;;;;;;;23.47;46.41;101953.56;4995421;28;20038;-60
2021/07/22 02:44:16;;;;;;;13.05;7.75;;;;;;;23.49;46.36;101957.81;4995063;28;20018;-60
2021/07/22 02:46:42;;;;;;;17.65;8.93;;;;;;;23.52;46.48;101968.38;4995349;28;20444;-60
2021/07/22 02:49:07;;;;;;;18.73;9.15;;;;;;;23.51;47.14;101974.88;4995314;28;20446;-60
2021/07/22 02:51:32;;;;;;;15.20;9.25;;;;;;;23.50;47.07;101970.44;4995166;28;20502;-60
2021/07/22 02:53:58;;;;;;;14.30;8.60;;;;;;;23.47;46.02;101965.34;4994788;28;20026;-60
2021/07/22 02:56:23;;;;;;;19.83;8.77;;;;;;;23.46;46.70;101963.63;4995030;28;20026;-60
2021/07/22 02:58:48;;;;;;;18.10;7.95;;;;;;;23.44;47.01;101970.34;4993545;28;20109;-60
2021/07/22 03:01:14;;;;;;;17.50;10.00;;;;;;;23.42;46.42;101970.50;4993485;28;20057;-60
2021/07/22 03:03:39;;;;;;;14.75;8.95;;;;;;;23.42;46.33;101973.22;4994993;28;20033;-60
2021/07/22 03:06:05;;;;;;;14.45;8.15;;;;;;;23.39;47.32;101972.78;4994830;28;20045;-60
2021/07/22 03:08:30;;;;;;;13.20;7.80;;;;;;;23.36;47.08;101968.50;4994972;28;20021;-60
2021/07/22 03:10:56;;;;;;;15.90;8.15;;;;;;;23.35;47.16;101977.72;4994778;28;20030;-60
2021/07/22 03:13:21;;;;;;;13.50;7.63;;;;;;;23.32;46.82;101969.88;4994308;28;20454;-60
2021/07/22 03:15:46;;;;;;;14.00;8.52;;;;;;;23.31;46.93;101970.91;4994747;28;20054;-60
2021/07/22 03:18:12;;;;;;;16.27;8.77;;;;;;;23.28;47.38;101959.50;4993989;28;20379;-60
2021/07/22 03:20:37;;;;;;;15.57;9.02;;;;;;;23.25;46.88;101958.00;4977095;28;20026;-60
2021/07/22 03:23:03;;;;;;;15.45;7.78;;;;;;;23.26;46.36;101967.88;4994659;28;20076;-60
2021/07/22 03:25:28;;;;;;;14.55;8.57;;;;;;;23.24;47.22;101961.75;4994657;28;20045;-60
2021/07/22 03:27:58;;;;;;;15.85;9.35;;;;;;;23.23;47.02;101962.78;4993407;28;20105;-60
2021/07/22 03:30:24;;;;;;;13.05;7.45;;;;;;;23.23;46.43;101962.78;4994579;28;20376;-60
2021/07/22 03:32:49;;;;;;;10.40;7.05;;;;;;;23.19;46.69;101951.38;4994671;28;20049;-60
2021/07/22 03:35:14;;;;;;;14.30;7.95;;;;;;;23.18;46.41;101960.59;4994419;28;20026;-60
2021/07/22 03:37:40;;;;;;;14.50;8.95;;;;;;;23.18;47.27;101971.53;4994073;28;20038;-60
2021/07/22 03:40:06;;;;;;;14.95;7.88;;;;;;;23.15;46.96;101965.59;4994119;28;20026;-60
2021/07/22 03:42:31;;;;;;;14.75;8.23;;;;;;;23.14;46.89;101961.16;4994146;28;20384;-60
2021/07/22 03:44:56;;;;;;;17.27;8.60;;;;;;;23.13;46.56;101962.19;4994563;28;20124;-60
2021/07/22 03:47:22;;;;;;;16.23;8.00;;;;;;;23.12;46.90;101960.47;4994165;28;20416;-60
2021/07/22 03:49:47;;;;;;;13.32;7.72;;;;;;;23.11;46.58;101964.28;4994293;28;20025;-60
2021/07/22 03:52:13;;;;;;;15.70;8.07;;;;;;;23.08;46.68;101959.16;4994332;28;20031;-60
2021/07/22 03:54:39;;;;;;;13.70;8.63;;;;;;;23.07;46.60;101957.47;5025577;28;20026;-60
2021/07/22 03:57:04;;;;;;;15.43;8.45;;;;;;;23.06;47.40;101956.59;4994224;28;20030;-60
2021/07/22 03:59:30;;;;;;;15.00;8.60;;;;;;;23.07;47.17;101957.47;4994092;28;20054;-60
2021/07/22 04:01:55;;;;;;;18.38;10.95;;;;;;;23.06;46.76;101961.25;4994340;28;20022;-60
2021/07/22 04:04:21;;;;;;;17.55;9.68;;;;;;;23.06;46.68;101956.59;4994332;28;20022;-60
2021/07/22 04:06:46;;;;;;;19.33;10.27;;;;;;;23.05;47.60;101959.53;4994524;28;20081;-60
2021/07/22 04:09:11;;;;;;;15.38;8.93;;;;;;;23.02;46.67;101944.34;4994136;28;20035;-59
2021/07/22 04:11:37;;;;;;;16.30;9.60;;;;;;;23.01;47.15;101947.25;4994225;28;20026;-60
2021/07/22 04:14:04;;;;;;;15.48;9.85;;;;;;;23.05;47.60;101954.06;5025313;28;20043;-60
2021/07/22 04:16:30;;;;;;;18.98;9.50;;;;;;;23.04;47.16;101953.22;4994080;28;20034;-60
2021/07/22 04:18:55;;;;;;;17.73;10.85;;;;;;;23.00;47.08;101943.66;4994093;28;20053;-60
2021/07/22 04:21:21;;;;;;;19.38;10.57;;;;;;;23.07;46.95;101957.47;4994184;28;20464;-60
2021/07/22 04:23:47;;;;;;;18.48;10.20;;;;;;;23.09;47.04;101952.66;4994157;28;20030;-60
2021/07/22 04:26:16;;;;;;;20.20;10.90;;;;;;;23.12;46.99;101950.41;4993820;28;20072;-60
2021/07/22 04:28:42;;;;;;;19.38;11.35;;;;;;;23.14;47.35;101952.97;4995013;28;20474;-60
2021/07/22 04:31:07;;;;;;;18.08;10.13;;;;;;;23.16;47.09;101951.75;4996626;28;20157;-60
2021/07/22 04:33:33;;;;;;;22.95;11.32;;;;;;;23.19;48.01;101956.84;4979969;28;20498;-60
2021/07/22 04:35:58;;;;;;;24.83;11.45;;;;;;;23.20;48.09;101949.47;4997738;28;20026;-61
2021/07/22 04:38:23;;;;;;;20.20;10.68;;;;;;;23.27;47.06;101955.94;4997585;28;20022;-60
2021/07/22 04:40:49;;;;;;;19.75;10.82;;;;;;;23.29;47.42;101951.09;4997942;28;20026;-60
2021/07/22 04:43:14;;;;;;;24.85;12.70;;;;;;;23.34;47.81;101956.03;4997540;28;20034;-60
2021/07/22 04:45:39;;;;;;;24.65;12.27;;;;;;;23.41;46.90;101960.63;4997275;28;20068;-60
2021/07/22 04:48:05;;;;;;;21.83;11.65;;;;;;;23.46;47.85;101960.91;4997364;28;20022;-61
2021/07/22 04:50:31;;;;;;;23.05;12.00;;;;;;;23.52;47.51;101965.63;4997428;28;20117;-60
2021/07/22 04:52:56;;;;;;;23.23;12.50;;;;;;;23.54;46.99;101952.59;4997370;28;20029;-61
2021/07/22 04:55:21;;;;;;;23.85;12.02;;;;;;;23.63;47.97;101956.13;4997143;28;20022;-60
2021/07/22 04:57:47;;;;;;;24.15;12.63;;;;;;;23.68;47.01;101956.41;4996808;28;20105;-60
2021/07/22 05:00:13;;;;;;;17.67;10.63;;;;;;;23.70;47.18;101949.69;4996846;28;20022;-61
2021/07/22 05:02:38;;;;;;;19.50;11.65;;;;;;;23.81;46.98;101955.75;4997137;28;20177;-61
2021/07/22 05:05:04;;;;;;;24.88;13.38;;;;;;;23.91;47.05;101956.31;4996835;28;20061;-60
2021/07/22 05:07:29;;;;;;;21.42;12.50;;;;;;;24.01;47.70;101963.19;4997328;28;20077;-61
2021/07/22 05:09:54;;;;;;;24.60;13.35;;;;;;;24.11;47.90;101966.56;4997551;28;20030;-60
2021/07/22 05:12:20;;;;;;;33.67;15.45;;;;;;;24.24;46.76;101952.19;4996928;28;20022;-61
2021/07/22 05:14:45;;;;;;;30.05;14.90;;;;;;;24.36;47.31;101958.88;4996456;28;20047;-60
2021/07/22 05:17:10;;;;;;;31.45;15.75;;;;;;;24.47;47.19;101963.84;4996514;28;20109;-60
2021/07/22 05:19:36;;;;;;;28.23;14.50;;;;;;;24.60;46.66;101964.00;4996579;28;20030;-61
2021/07/22 05:22:02;;;;;;;31.70;15.63;;;;;;;24.73;46.91;101957.84;4996479;28;20109;-60
2021/07/22 05:24:27;;;;;;;26.00;15.32;;;;;;;24.83;46.41;101959.25;4996960;28;20030;-60
2021/07/22 05:26:52;;;;;;;33.50;14.85;;;;;;;24.97;45.80;101964.84;4996947;28;20109;-60
2021/07/22 05:29:18;;;;;;;32.97;15.57;;;;;;;25.09;46.34;101966.03;4996720;28;20122;-60
2021/07/22 05:31:43;;;;;;;29.00;15.88;;;;;;;25.22;46.47;101968.91;4995797;28;20029;-61
2021/07/22 05:34:09;;;;;;;38.63;16.75;;;;;;;25.28;46.39;101958.00;4996518;28;20113;-61
2021/07/22 05:36:35;;;;;;;33.45;16.95;;;;;;;25.42;46.32;101953.47;5014887;28;20113;-61
2021/07/22 05:39:00;;;;;;;35.28;15.32;;;;;;;25.51;46.32;101962.44;5016043;28;20021;-61
2021/07/22 05:41:26;;;;;;;31.05;16.23;;;;;;;25.67;45.91;101957.47;5015385;28;20045;-61
2021/07/22 05:43:51;;;;;;;29.77;15.20;;;;;;;25.80;45.75;101962.19;5015683;28;20030;-61
2021/07/22 05:46:20;;;;;;;32.40;16.13;;;;;;;25.94;45.80;101964.84;5015621;28;20032;-61
2021/07/22 05:48:46;;;;;;;29.30;14.80;;;;;;;26.05;45.78;101956.03;5015859;28;20034;-61
2021/07/22 05:51:12;;;;;;;29.42;15.48;;;;;;;26.23;45.25;101960.16;5015784;28;20379;-61
2021/07/22 05:53:37;;;;;;;27.67;16.13;;;;;;;26.36;45.25;101963.81;5015775;28;20022;-61
2021/07/22 05:56:03;;;;;;;31.58;15.82;;;;;;;26.51;45.23;101958.16;5015520;28;20026;-61
2021/07/22 05:58:28;;;;;;;31.73;15.98;;;;;;;26.65;45.24;101951.66;5015887;28;20136;-61
2021/07/22 06:00:53;;;;;;;29.58;17.35;;;;;;;26.81;45.40;101959.56;5004290;28;20056;-59
2021/07/22 06:03:19;;;;;;;29.77;16.00;;;;;;;26.88;45.20;101963.19;4995713;28;20485;-60
2021/07/22 06:05:44;;;;;;;28.70;17.45;;;;;;;26.94;44.79;101956.81;4996285;28;20459;-59
2021/07/22 06:08:09;;;;;;;34.78;16.58;;;;;;;27.08;45.22;101966.78;4996242;28;20026;-59
2021/07/22 06:10:35;;;;;;;34.75;17.83;;;;;;;27.05;45.23;101963.63;4996070;28;20026;-59
2021/07/22 06:13:02;;;;;;;30.67;16.15;;;;;;;26.97;44.88;101953.66;4995820;28;20034;-59
2021/07/22 06:15:27;;;;;;;32.55;16.30;;;;;;;27.02;44.68;101970.41;4995925;28;20023;-59
2021/07/22 06:17:52;;;;;;;31.92;15.85;;;;;;;27.08;45.21;101974.22;4995427;28;20059;-59
2021/07/22 06:20:18;;;;;;;24.92;15.55;;;;;;;27.11;45.10;101960.88;4995610;28;20018;-59
2021/07/22 06:22:46;;;;;;;29.17;16.98;;;;;;;27.16;44.94;101969.31;4995811;28;20359;-59
2021/07/22 06:25:13;;;;;;;54.95;21.58;;;;;;;27.20;45.19;101975.28;4995867;28;20053;-59
2021/07/22 06:27:39;;;;;;;30.30;17.02;;;;;;;27.27;44.89;101967.03;4993922;28;20403;-59
2021/07/22 06:30:05;;;;;;;29.17;16.75;;;;;;;27.49;44.80;101963.03;4995300;28;20026;-59
2021/07/22 06:32:31;;;;;;;28.90;15.68;;;;;;;27.73;44.05;101967.88;4995602;28;20101;-61
2021/07/22 06:34:56;;;;;;;29.48;16.13;;;;;;;27.96;44.17;101967.41;4995370;28;20030;-58
2021/07/22 06:37:21;;;;;;;30.75;16.15;;;;;;;28.17;43.07;101969.91;4995287;28;20026;-59
2021/07/22 06:39:47;;;;;;;30.80;16.63;;;;;;;28.38;44.08;101960.50;4994961;28;20073;-59
2021/07/22 06:42:12;;;;;;;31.83;16.52;;;;;;;28.55;42.90;101961.72;4994906;28;20479;-59
2021/07/22 06:44:38;;;;;;;26.52;15.95;;;;;;;28.78;42.50;101970.31;4994874;28;20383;-59
2021/07/22 06:47:03;;;;;;;32.35;16.25;;;;;;;28.95;42.84;101965.94;4994850;28;20389;-59
2021/07/22 06:49:28;;;;;;;29.67;15.50;;;;;;;29.12;43.26;101966.28;4995008;28;20113;-59
2021/07/22 06:51:53;;;;;;;25.52;15.05;;;;;;;29.32;42.71;101965.06;4992936;28;20077;-59
2021/07/22 06:54:20;;;;;;;25.23;14.70;;;;;;;29.51;42.43;101967.91;4995038;28;20030;-59
2021/07/22 06:56:46;;;;;;;27.27;15.73;;;;;;;29.70;42.13;101969.63;4994603;28;20061;-58
2021/07/22 06:59:11;;;;;;;28.15;14.02;;;;;;;29.86;41.89;101966.31;4995391;28;20069;-58
2021/07/22 07:01:36;;;;;;;23.50;12.57;;;;;;;30.03;41.46;101961.88;4993368;28;20022;-59
2021/07/22 07:04:03;;;;;;;27.58;12.95;;;;;;;30.18;41.07;101967.84;4994959;28;20030;-59
2021/07/22 07:06:28;;;;;;;23.92;12.70;;;;;;;30.21;40.35;101959.09;4994768;28;20033;-59
2021/07/22 07:08:54;;;;;;;21.42;12.52;;;;;;;30.25;40.53;101965.84;4994777;28;20475;-59
2021/07/22 07:11:19;;;;;;;23.98;12.77;;;;;;;30.43;40.36;101963.09;4994965;28;20483;-58
2021/07/22 07:13:45;;;;;;;23.98;13.82;;;;;;;30.63;40.31;101973.06;4994149;28;20415;-59
2021/07/22 07:16:10;;;;;;;23.05;12.57;;;;;;;30.82;40.06;101966.41;4994409;28;20026;-59
2021/07/22 07:18:35;;;;;;;21.25;13.10;;;;;;;30.98;39.83;101965.78;4994954;28;20031;-59
2021/07/22 07:21:04;;;;;;;19.17;11.25;;;;;;;31.11;39.67;101966.41;4994595;28;20030;-59
2021/07/22 07:23:31;;;;;;;25.60;13.45;;;;;;;31.29;39.60;101962.72;4994540;28;20029;-59
2021/07/22 07:25:56;;;;;;;25.70;12.90;;;;;;;31.49;39.26;101977.09;4994513;28;20022;-59
2021/07/22 07:28:21;;;;;;;28.58;12.50;;;;;;;31.57;39.15;101965.66;4994536;28;20022;-59
2021/07/22 07:30:47;;;;;;;26.92;12.73;;;;;;;31.82;38.86;101967.34;4994605;28;20074;-59
2021/07/22 07:33:12;;;;;;;21.83;12.27;;;;;;;32.01;38.49;101968.94;4994266;28;20033;-59
2021/07/22 07:35:38;;;;;;;22.30;12.73;;;;;;;32.15;38.37;101970.34;4994004;28;20172;-59
2021/07/22 07:38:04;;;;;;;20.63;12.25;;;;;;;32.27;38.46;101972.00;4993919;28;20027;-59
2021/07/22 07:40:32;;;;;;;27.67;12.52;;;;;;;32.40;37.36;101954.25;4994317;28;20042;-59
2021/07/22 07:42:57;;;;;;;20.63;11.52;;;;;;;32.62;37.71;101969.16;4992783;28;20034;-59
2021/07/22 07:45:24;;;;;;;28.20;11.98;;;;;;;32.74;37.38;101964.41;4994273;28;20026;-59
2021/07/22 07:47:52;;;;;;;24.90;12.43;;;;;;;32.92;37.21;101968.03;4993901;28;20025;-59
2021/07/22 07:50:18;;;;;;;22.08;12.25;;;;;;;33.08;36.41;101967.28;4994139;28;20030;-59
2021/07/22 07:52:44;;;;;;;18.70;11.50;;;;;;;33.22;35.91;101966.69;4994455;28;20030;-60
2021/07/22 07:55:10;;;;;;;17.83;11.48;;;;;;;33.36;35.89;101964.44;4992931;28;20022;-59
2021/07/22 07:57:35;;;;;;;18.08;11.30;;;;;;;33.50;35.74;101962.16;4994437;28;20054;-59
2021/07/22 08:00:01;;;;;;;20.88;11.40;;;;;;;33.64;35.86;101961.56;4993985;28;20395;-59
2021/07/22 08:02:26;;;;;;;19.13;11.55;;;;;;;33.78;36.21;101951.78;4994374;28;20026;-59
2021/07/22 08:04:54;;;;;;;17.60;11.32;;;;;;;33.97;35.77;101949.56;4996549;28;20498;-59
2021/07/22 08:07:19;;;;;;;15.98;10.68;;;;;;;34.17;35.96;101951.81;4998056;28;20191;-59
2021/07/22 08:09:47;;;;;;;21.15;11.23;;;;;;;34.36;34.73;101947.59;4997709;28;20526;-60
2021/07/22 08:12:12;;;;;;;19.27;11.63;;;;;;;34.53;35.47;101953.91;4997955;28;20525;-59
2021/07/22 08:14:38;;;;;;;17.05;10.82;;;;;;;34.68;34.46;101954.09;4997707;28;20046;-59
2021/07/22 08:17:06;;;;;;;18.20;10.88;;;;;;;34.82;34.08;101955.38;4998146;28;20022;-59
2021/07/22 08:19:32;;;;;;;15.63;10.57;;;;;;;34.98;34.91;101957.19;4997915;28;20475;-60
2021/07/22 08:21:57;;;;;;;18.10;10.23;;;;;;;35.16;34.21;101950.44;4997742;28;20027;-59
2021/07/22 08:24:23;;;;;;;18.75;10.77;;;;;;;35.31;33.93;101944.16;4997442;28;20077;-59
2021/07/22 08:26:48;;;;;;;20.58;11.52;;;;;;;35.46;33.63;101953.47;4997729;28;20031;-59
2021/07/22 08:29:13;;;;;;;19.45;12.60;;;;;;;35.62;33.37;101946.91;4997457;28;20101;-60
2021/07/22 08:31:39;;;;;;;18.85;11.93;;;;;;;35.76;33.78;101950.09;4997638;28;20057;-60
2021/07/22 08:34:04;;;;;;;22.52;12.55;;;;;;;35.89;33.22;101946.81;4996211;28;20023;-60
2021/07/22 08:36:29;;;;;;;23.20;11.65;;;;;;;36.04;33.30;101943.31;4997237;28;20073;-60
2021/07/22 08:38:55;;;;;;;19.17;11.43;;;;;;;36.21;32.72;101950.34;4996326;28;20160;-60
2021/07/22 08:41:20;;;;;;;23.95;11.70;;;;;;;36.40;32.67;101947.09;4997589;28;20038;-60
2021/07/22 08:43:50;;;;;;;24.50;11.43;;;;;;;36.60;32.74;101941.59;4997400;28;20037;-60
2021/07/22 08:46:16;;;;;;;21.02;11.15;;;;;;;36.81;32.47;101937.72;4997582;28;20042;-59
2021/07/22 08:48:43;;;;;;;22.70;11.23;;;;;;;36.93;32.01;101946.69;4997355;28;20030;-59
2021/07/22 08:51:08;;;;;;;21.35;11.18;;;;;;;37.12;32.48;101941.41;4997040;28;20027;-60
2021/07/22 08:53:34;;;;;;;21.20;12.38;;;;;;;36.97;32.05;101933.00;4997232;28;20464;-60
2021/07/22 08:55:59;;;;;;;18.85;10.52;;;;;;;36.97;31.96;101936.66;4996967;28;20022;-59
2021/07/22 08:58:28;;;;;;;18.73;11.75;;;;;;;37.17;31.96;101936.66;4997173;28;20427;-60
2021/07/22 09:00:55;;;;;;;20.02;11.63;;;;;;;37.32;31.70;101947.00;4996831;28;20030;-60
2021/07/22 09:03:20;;;;;;;19.73;11.45;;;;;;;37.44;31.97;101941.16;4995701;28;20483;-59
2021/07/22 09:05:46;;;;;;;18.02;11.05;;;;;;;37.54;31.99;101932.75;4996772;28;20026;-59
2021/07/22 09:08:11;;;;;;;19.85;10.95;;;;;;;37.68;31.43;101942.25;4997203;28;20043;-60
2021/07/22 09:10:37;;;;;;;18.58;10.82;;;;;;;37.85;31.12;101937.16;4995415;28;20033;-60
2021/07/22 09:13:03;;;;;;;23.08;12.68;;;;;;;37.95;31.46;101937.16;4995878;28;20033;-60
2021/07/22 09:15:34;;;;;;;19.77;11.57;;;;;;;38.04;31.10;101935.44;4995702;28;20042;-59
2021/07/22 09:18:19;;;;;;;19.33;12.73;;;;;;;38.19;30.44;101937.34;4996776;28;20376;-59
2021/07/22 09:20:44;;;;;;;20.27;12.02;;;;;;;38.28;31.06;101925.25;4994352;28;20045;-59
2021/07/22 09:23:18;;;;;;;24.08;11.88;;;;;;;38.37;31.68;101929.16;4996466;28;20034;-60
2021/07/22 09:25:45;;;;;;;23.98;14.02;;;;;;;38.47;30.40;101933.03;4996841;28;20088;-59
2021/07/22 09:28:21;;;;;;;26.23;13.93;;;;;;;38.52;31.00;101931.06;4996352;28;20429;-60
2021/07/22 09:31:07;;;;;;;24.80;12.73;;;;;;;38.54;30.51;101923.19;4996780;28;20050;-59
2021/07/22 09:33:41;;;;;;;18.90;11.88;;;;;;;38.65;30.63;101923.94;4996282;28;20030;-59
2021/07/22 09:36:08;;;;;;;24.73;12.32;;;;;;;38.83;30.65;101928.91;4996577;28;20049;-59
2021/07/22 09:38:34;;;;;;;19.23;12.13;;;;;;;38.94;30.47;101928.56;4995730;28;20427;-60
2021/07/22 09:40:59;;;;;;;24.92;13.10;;;;;;;39.12;30.09;101929.78;4996235;28;20030;-60
2021/07/22 09:43:45;;;;;;;20.17;13.32;;;;;;;39.30;30.38;101926.31;4996396;28;20026;-59
2021/07/22 09:46:10;;;;;;;19.58;11.57;;;;;;;39.36;29.78;101930.75;4994775;28;20125;-60
2021/07/22 09:48:37;;;;;;;28.52;12.15;;;;;;;39.47;29.57;101931.47;4996216;28;20498;-60
2021/07/22 09:51:02;;;;;;;18.75;11.27;;;;;;;38.84;29.67;101938.97;4996292;28;20031;-59
2021/07/22 09:53:28;;;;;;;17.60;10.32;;;;;;;38.39;29.91;101938.09;4994731;28;20528;-60
2021/07/22 09:55:55;;;;;;;20.05;12.05;;;;;;;38.53;30.00;101931.91;4994975;28;20483;-59
2021/07/22 09:58:23;;;;;;;18.40;10.00;;;;;;;38.62;30.10;101930.97;4996109;28;20447;-60
2021/07/22 10:00:52;;;;;;;20.33;10.63;;;;;;;38.87;28.61;101933.63;4996077;28;20046;-59
2021/07/22 10:03:19;;;;;;;16.98;10.32;;;;;;;38.54;30.03;101937.19;4994610;28;20057;-59
2021/07/22 10:06:02;;;;;;;22.58;9.80;;;;;;;38.96;29.77;101931.91;4994519;28;20213;-59
2021/07/22 10:08:29;;;;;;;18.00;10.93;;;;;;;38.91;29.82;101929.13;4995008;28;20030;-60
2021/07/22 10:10:56;;;;;;;23.23;15.38;;;;;;;38.93;29.22;101926.03;4994881;28;20026;-60
2021/07/22 10:13:44;;;;;;;20.48;12.82;;;;;;;39.70;28.88;101929.88;4995255;28;20046;-60
2021/07/22 10:16:12;;;;;;;20.90;11.80;;;;;;;40.80;27.83;101929.56;4996009;28;20117;-60
2021/07/22 10:18:47;;;;;;;20.40;11.30;;;;;;;41.74;26.62;101923.44;4995665;28;20038;-60
2021/07/22 10:21:14;;;;;;;20.33;11.43;;;;;;;41.61;27.34;101924.25;4993759;28;20384;-60
2021/07/22 10:23:40;;;;;;;21.70;11.25;;;;;;;40.56;28.36;101922.06;4994998;28;20027;-60
2021/07/22 10:26:06;;;;;;;22.58;10.82;;;;;;;39.75;28.38;101927.84;4995235;28;20092;-60
2021/07/22 10:28:33;;;;;;;14.25;8.50;;;;;;;39.06;29.17;101916.94;4995174;28;20452;-60
2021/07/22 10:30:59;;;;;;;19.42;10.90;;;;;;;38.51;28.67;101911.72;4995642;28;20026;-60
2021/07/22 10:33:25;;;;;;;14.30;8.98;;;;;;;38.04;29.96;101918.66;4994341;28;20535;-60
2021/07/22 10:35:54;;;;;;;16.83;9.70;;;;;;;38.49;29.26;101916.78;4994445;28;20033;-60
2021/07/22 10:38:28;;;;;;;21.38;11.15;;;;;;;38.96;28.71;101897.41;4994250;28;20018;-60
2021/07/22 10:40:55;;;;;;;19.25;9.55;;;;;;;39.38;28.45;101908.00;4995141;28;20448;-60
2021/07/22 10:43:30;;;;;;;18.25;9.68;;;;;;;39.39;28.45;101902.09;4995302;28;20022;-60
2021/07/22 10:45:56;;;;;;;15.35;7.47;;;;;;;39.71;28.28;101900.66;4995430;28;20077;-60
2021/07/22 10:48:26;;;;;;;12.15;8.15;;;;;;;40.20;28.31;101901.22;4994528;28;20026;-60
2021/07/22 10:50:54;;;;;;;14.45;9.23;;;;;;;40.53;27.12;101894.56;4994728;28;20026;-60
2021/07/22 10:53:37;;;;;;;15.35;8.88;;;;;;;40.97;26.82;101890.50;4995065;28;20029;-60
2021/07/22 10:56:04;;;;;;;11.32;8.23;;;;;;;41.29;26.99;101892.50;4994883;28;20031;-60
2021/07/22 10:58:29;;;;;;;13.30;8.63;;;;;;;41.62;26.61;101891.31;4995158;28;20109;-60
2021/07/22 11:00:55;;;;;;;11.88;7.20;;;;;;;41.90;26.53;101875.28;4995346;28;20117;-60
2021/07/22 11:03:35;;;;;;;12.35;8.40;;;;;;;42.27;26.04;101883.50;4994840;28;20033;-60
2021/07/22 11:06:05;;;;;;;10.15;7.38;;;;;;;42.45;26.08;101884.50;4994896;28;20053;-60
2021/07/22 11:08:32;;;;;;;13.07;7.25;;;;;;;42.70;25.78;101876.28;4994799;28;20438;-60